sensor_id;sensor_type;location;lat;lon;timestamp;temperature;humidity
53962;DHT22;39868;53.398;6.564;2023-06-22T00:00:06;19.50;76.20
53962;DHT22;39868;53.398;6.564;2023-06-22T00:02:37;19.40;76.10
53962;DHT22;39868;53.398;6.564;2023-06-22T00:05:05;19.40;76.10
53962;DHT22;39868;53.398;6.564;2023-06-22T00:07:32;19.40;76.10
53962;DHT22;39868;53.398;6.564;2023-06-22T00:09:59;19.30;76.10
53962;DHT22;39868;53.398;6.564;2023-06-22T00:12:27;19.30;76.10
53962;DHT22;39868;53.398;6.564;2023-06-22T00:14:54;19.30;76.10
53962;DHT22;39868;53.398;6.564;2023-06-22T00:17:21;19.20;76.00
53962;DHT22;39868;53.398;6.564;2023-06-22T00:19:49;19.20;76.10
53962;DHT22;39868;53.398;6.564;2023-06-22T00:22:21;19.20;76.20
53962;DHT22;39868;53.398;6.564;2023-06-22T00:24:56;19.10;76.20
53962;DHT22;39868;53.398;6.564;2023-06-22T00:27:23;19.10;76.20
53962;DHT22;39868;53.398;6.564;2023-06-22T00:29:51;19.10;76.30
53962;DHT22;39868;53.398;6.564;2023-06-22T00:32:18;19.10;76.30
53962;DHT22;39868;53.398;6.564;2023-06-22T00:34:47;19.10;76.30
53962;DHT22;39868;53.398;6.564;2023-06-22T00:37:14;19.00;76.40
53962;DHT22;39868;53.398;6.564;2023-06-22T00:39:44;19.00;76.40
53962;DHT22;39868;53.398;6.564;2023-06-22T00:42:11;19.00;76.40
53962;DHT22;39868;53.398;6.564;2023-06-22T00:44:38;19.00;76.50
53962;DHT22;39868;53.398;6.564;2023-06-22T00:47:06;18.90;76.50
53962;DHT22;39868;53.398;6.564;2023-06-22T00:49:33;18.90;76.60
53962;DHT22;39868;53.398;6.564;2023-06-22T00:52:01;18.90;76.70
53962;DHT22;39868;53.398;6.564;2023-06-22T00:54:28;18.90;76.70
53962;DHT22;39868;53.398;6.564;2023-06-22T00:56:56;18.90;76.70
53962;DHT22;39868;53.398;6.564;2023-06-22T00:59:24;19.00;76.90
53962;DHT22;39868;53.398;6.564;2023-06-22T01:01:53;19.00;77.00
53962;DHT22;39868;53.398;6.564;2023-06-22T01:04:23;19.00;77.10
53962;DHT22;39868;53.398;6.564;2023-06-22T01:06:55;19.00;77.00
53962;DHT22;39868;53.398;6.564;2023-06-22T01:09:26;19.00;77.10
53962;DHT22;39868;53.398;6.564;2023-06-22T01:11:54;19.00;77.10
53962;DHT22;39868;53.398;6.564;2023-06-22T01:14:27;19.00;77.10
53962;DHT22;39868;53.398;6.564;2023-06-22T01:16:56;19.00;77.10
53962;DHT22;39868;53.398;6.564;2023-06-22T01:22:10;19.00;77.10
53962;DHT22;39868;53.398;6.564;2023-06-22T01:24:51;19.00;77.10
53962;DHT22;39868;53.398;6.564;2023-06-22T01:29:52;19.00;77.20
53962;DHT22;39868;53.398;6.564;2023-06-22T01:32:30;19.00;77.20
53962;DHT22;39868;53.398;6.564;2023-06-22T01:35:00;19.00;77.20
53962;DHT22;39868;53.398;6.564;2023-06-22T01:37:30;19.00;77.20
53962;DHT22;39868;53.398;6.564;2023-06-22T01:39:59;18.90;77.10
53962;DHT22;39868;53.398;6.564;2023-06-22T01:42:26;18.90;77.10
53962;DHT22;39868;53.398;6.564;2023-06-22T01:44:54;18.90;77.20
53962;DHT22;39868;53.398;6.564;2023-06-22T01:47:22;18.90;77.20
53962;DHT22;39868;53.398;6.564;2023-06-22T01:49:49;18.80;77.20
53962;DHT22;39868;53.398;6.564;2023-06-22T01:52:20;18.80;77.10
53962;DHT22;39868;53.398;6.564;2023-06-22T01:54:50;18.80;77.10
53962;DHT22;39868;53.398;6.564;2023-06-22T01:57:18;18.80;77.20
53962;DHT22;39868;53.398;6.564;2023-06-22T01:59:48;18.70;77.10
53962;DHT22;39868;53.398;6.564;2023-06-22T02:02:16;18.70;77.10
53962;DHT22;39868;53.398;6.564;2023-06-22T02:07:20;18.70;77.10
53962;DHT22;39868;53.398;6.564;2023-06-22T02:09:48;18.60;77.10
53962;DHT22;39868;53.398;6.564;2023-06-22T02:12:19;18.50;77.00
53962;DHT22;39868;53.398;6.564;2023-06-22T02:14:48;18.50;77.10
53962;DHT22;39868;53.398;6.564;2023-06-22T02:17:17;18.50;77.10
53962;DHT22;39868;53.398;6.564;2023-06-22T02:19:44;18.50;77.20
53962;DHT22;39868;53.398;6.564;2023-06-22T02:22:13;18.40;77.30
53962;DHT22;39868;53.398;6.564;2023-06-22T02:24:43;18.40;77.20
53962;DHT22;39868;53.398;6.564;2023-06-22T02:27:10;18.40;77.30
53962;DHT22;39868;53.398;6.564;2023-06-22T02:29:38;18.40;77.40
53962;DHT22;39868;53.398;6.564;2023-06-22T02:32:05;18.40;77.50
53962;DHT22;39868;53.398;6.564;2023-06-22T02:34:32;18.30;77.40
53962;DHT22;39868;53.398;6.564;2023-06-22T02:37:01;18.30;77.50
53962;DHT22;39868;53.398;6.564;2023-06-22T02:39:29;18.30;77.60
53962;DHT22;39868;53.398;6.564;2023-06-22T02:41:56;18.30;77.60
53962;DHT22;39868;53.398;6.564;2023-06-22T02:44:23;18.30;77.70
53962;DHT22;39868;53.398;6.564;2023-06-22T02:46:51;18.30;77.80
53962;DHT22;39868;53.398;6.564;2023-06-22T02:49:18;18.30;77.70
53962;DHT22;39868;53.398;6.564;2023-06-22T02:51:46;18.30;77.70
53962;DHT22;39868;53.398;6.564;2023-06-22T02:54:17;18.30;77.70
53962;DHT22;39868;53.398;6.564;2023-06-22T02:56:46;18.30;77.70
53962;DHT22;39868;53.398;6.564;2023-06-22T02:59:15;18.30;77.70
53962;DHT22;39868;53.398;6.564;2023-06-22T03:01:44;18.20;77.70
53962;DHT22;39868;53.398;6.564;2023-06-22T03:04:18;18.20;77.70
53962;DHT22;39868;53.398;6.564;2023-06-22T03:06:46;18.20;77.70
53962;DHT22;39868;53.398;6.564;2023-06-22T03:09:18;18.10;77.70
53962;DHT22;39868;53.398;6.564;2023-06-22T03:11:46;18.20;77.80
53962;DHT22;39868;53.398;6.564;2023-06-22T03:14:15;18.10;77.80
53962;DHT22;39868;53.398;6.564;2023-06-22T03:16:42;18.10;77.90
53962;DHT22;39868;53.398;6.564;2023-06-22T03:19:11;18.10;78.00
53962;DHT22;39868;53.398;6.564;2023-06-22T03:21:38;18.10;78.00
53962;DHT22;39868;53.398;6.564;2023-06-22T03:24:07;18.10;78.00
53962;DHT22;39868;53.398;6.564;2023-06-22T03:26:34;18.10;78.10
53962;DHT22;39868;53.398;6.564;2023-06-22T03:29:01;18.10;78.20
53962;DHT22;39868;53.398;6.564;2023-06-22T03:31:30;18.10;78.20
53962;DHT22;39868;53.398;6.564;2023-06-22T03:33:57;18.10;78.20
53962;DHT22;39868;53.398;6.564;2023-06-22T03:36:24;18.10;78.30
53962;DHT22;39868;53.398;6.564;2023-06-22T03:38:52;18.20;78.30
53962;DHT22;39868;53.398;6.564;2023-06-22T03:41:19;18.20;78.30
53962;DHT22;39868;53.398;6.564;2023-06-22T03:43:47;18.20;78.40
53962;DHT22;39868;53.398;6.564;2023-06-22T03:46:15;18.20;78.40
53962;DHT22;39868;53.398;6.564;2023-06-22T03:48:42;18.20;78.40
53962;DHT22;39868;53.398;6.564;2023-06-22T03:51:10;18.30;78.50
53962;DHT22;39868;53.398;6.564;2023-06-22T03:53:37;18.30;78.50
53962;DHT22;39868;53.398;6.564;2023-06-22T03:56:04;18.30;78.50
53962;DHT22;39868;53.398;6.564;2023-06-22T03:58:32;18.30;78.60
53962;DHT22;39868;53.398;6.564;2023-06-22T04:01:00;18.30;78.60
53962;DHT22;39868;53.398;6.564;2023-06-22T04:03:27;18.30;78.60
53962;DHT22;39868;53.398;6.564;2023-06-22T04:05:55;18.40;78.70
53962;DHT22;39868;53.398;6.564;2023-06-22T04:08:22;18.40;78.70
53962;DHT22;39868;53.398;6.564;2023-06-22T04:10:49;18.40;78.70
53962;DHT22;39868;53.398;6.564;2023-06-22T04:13:17;18.40;78.70
53962;DHT22;39868;53.398;6.564;2023-06-22T04:15:44;18.40;78.60
53962;DHT22;39868;53.398;6.564;2023-06-22T04:18:11;18.40;78.60
53962;DHT22;39868;53.398;6.564;2023-06-22T04:20:40;18.40;78.60
53962;DHT22;39868;53.398;6.564;2023-06-22T04:23:07;18.40;78.60
53962;DHT22;39868;53.398;6.564;2023-06-22T04:25:34;18.40;78.60
53962;DHT22;39868;53.398;6.564;2023-06-22T04:28:02;18.40;78.70
53962;DHT22;39868;53.398;6.564;2023-06-22T04:30:32;18.40;78.70
53962;DHT22;39868;53.398;6.564;2023-06-22T04:32:59;18.40;78.70
53962;DHT22;39868;53.398;6.564;2023-06-22T04:35:27;18.50;78.70
53962;DHT22;39868;53.398;6.564;2023-06-22T04:37:57;18.50;78.80
53962;DHT22;39868;53.398;6.564;2023-06-22T04:40:25;18.40;78.80
53962;DHT22;39868;53.398;6.564;2023-06-22T04:42:53;18.50;78.90
53962;DHT22;39868;53.398;6.564;2023-06-22T04:45:20;18.50;78.90
53962;DHT22;39868;53.398;6.564;2023-06-22T04:47:48;18.50;78.90
53962;DHT22;39868;53.398;6.564;2023-06-22T04:50:16;18.50;79.00
53962;DHT22;39868;53.398;6.564;2023-06-22T04:52:44;18.50;79.00
53962;DHT22;39868;53.398;6.564;2023-06-22T04:55:12;18.60;79.00
53962;DHT22;39868;53.398;6.564;2023-06-22T04:57:41;18.60;79.10
53962;DHT22;39868;53.398;6.564;2023-06-22T05:00:11;18.60;79.10
53962;DHT22;39868;53.398;6.564;2023-06-22T05:02:40;18.60;79.20
53962;DHT22;39868;53.398;6.564;2023-06-22T05:05:08;18.70;79.20
53962;DHT22;39868;53.398;6.564;2023-06-22T05:07:36;18.70;79.20
53962;DHT22;39868;53.398;6.564;2023-06-22T05:10:03;18.70;79.30
53962;DHT22;39868;53.398;6.564;2023-06-22T05:12:30;18.80;79.40
53962;DHT22;39868;53.398;6.564;2023-06-22T05:14:58;18.80;79.60
53962;DHT22;39868;53.398;6.564;2023-06-22T05:17:25;18.90;79.60
53962;DHT22;39868;53.398;6.564;2023-06-22T05:19:52;18.90;79.70
53962;DHT22;39868;53.398;6.564;2023-06-22T05:22:21;19.00;79.80
53962;DHT22;39868;53.398;6.564;2023-06-22T05:24:51;19.10;79.90
53962;DHT22;39868;53.398;6.564;2023-06-22T05:27:22;19.10;80.00
53962;DHT22;39868;53.398;6.564;2023-06-22T05:29:49;19.20;80.10
53962;DHT22;39868;53.398;6.564;2023-06-22T05:32:17;19.30;80.20
53962;DHT22;39868;53.398;6.564;2023-06-22T05:34:44;19.40;80.20
53962;DHT22;39868;53.398;6.564;2023-06-22T05:37:11;19.50;80.30
53962;DHT22;39868;53.398;6.564;2023-06-22T05:39:39;19.60;80.40
53962;DHT22;39868;53.398;6.564;2023-06-22T05:42:07;19.60;80.40
53962;DHT22;39868;53.398;6.564;2023-06-22T05:44:36;19.70;80.40
53962;DHT22;39868;53.398;6.564;2023-06-22T05:47:06;19.80;80.50
53962;DHT22;39868;53.398;6.564;2023-06-22T05:49:33;19.90;80.50
53962;DHT22;39868;53.398;6.564;2023-06-22T05:52:00;20.00;80.60
53962;DHT22;39868;53.398;6.564;2023-06-22T05:54:28;20.10;80.60
53962;DHT22;39868;53.398;6.564;2023-06-22T05:56:55;20.20;80.70
53962;DHT22;39868;53.398;6.564;2023-06-22T05:59:23;20.30;80.70
53962;DHT22;39868;53.398;6.564;2023-06-22T06:01:50;20.30;80.70
53962;DHT22;39868;53.398;6.564;2023-06-22T06:04:18;20.40;80.80
53962;DHT22;39868;53.398;6.564;2023-06-22T06:06:45;20.50;80.80
53962;DHT22;39868;53.398;6.564;2023-06-22T06:09:14;20.60;80.90
53962;DHT22;39868;53.398;6.564;2023-06-22T06:11:41;20.60;80.90
53962;DHT22;39868;53.398;6.564;2023-06-22T06:14:09;20.80;81.00
53962;DHT22;39868;53.398;6.564;2023-06-22T06:16:36;20.80;80.90
53962;DHT22;39868;53.398;6.564;2023-06-22T06:19:03;20.90;81.00
53962;DHT22;39868;53.398;6.564;2023-06-22T06:21:31;21.00;81.00
53962;DHT22;39868;53.398;6.564;2023-06-22T06:23:58;21.00;81.00
53962;DHT22;39868;53.398;6.564;2023-06-22T06:26:25;21.10;81.00
53962;DHT22;39868;53.398;6.564;2023-06-22T06:28:56;21.20;81.10
53962;DHT22;39868;53.398;6.564;2023-06-22T06:31:24;21.30;81.10
53962;DHT22;39868;53.398;6.564;2023-06-22T06:33:54;21.40;81.20
53962;DHT22;39868;53.398;6.564;2023-06-22T06:36:22;21.50;81.20
53962;DHT22;39868;53.398;6.564;2023-06-22T06:38:49;21.50;81.20
53962;DHT22;39868;53.398;6.564;2023-06-22T06:41:16;21.60;81.20
53962;DHT22;39868;53.398;6.564;2023-06-22T06:43:44;21.70;81.20
53962;DHT22;39868;53.398;6.564;2023-06-22T06:46:11;21.70;81.10
53962;DHT22;39868;53.398;6.564;2023-06-22T06:48:39;21.80;81.10
53962;DHT22;39868;53.398;6.564;2023-06-22T06:51:06;21.90;81.10
53962;DHT22;39868;53.398;6.564;2023-06-22T06:53:37;21.90;81.00
53962;DHT22;39868;53.398;6.564;2023-06-22T06:56:04;22.00;81.00
53962;DHT22;39868;53.398;6.564;2023-06-22T06:58:32;22.10;81.00
53962;DHT22;39868;53.398;6.564;2023-06-22T07:00:59;22.10;80.90
53962;DHT22;39868;53.398;6.564;2023-06-22T07:03:27;22.20;80.90
53962;DHT22;39868;53.398;6.564;2023-06-22T07:05:54;22.20;80.90
53962;DHT22;39868;53.398;6.564;2023-06-22T07:08:21;22.30;80.90
53962;DHT22;39868;53.398;6.564;2023-06-22T07:10:48;22.40;80.90
53962;DHT22;39868;53.398;6.564;2023-06-22T07:13:15;22.40;80.80
53962;DHT22;39868;53.398;6.564;2023-06-22T07:15:43;22.50;80.80
53962;DHT22;39868;53.398;6.564;2023-06-22T07:18:10;22.50;80.80
53962;DHT22;39868;53.398;6.564;2023-06-22T07:20:37;22.60;80.70
53962;DHT22;39868;53.398;6.564;2023-06-22T07:23:06;22.60;80.70
53962;DHT22;39868;53.398;6.564;2023-06-22T07:25:33;22.60;80.60
53962;DHT22;39868;53.398;6.564;2023-06-22T07:28:01;22.70;80.60
53962;DHT22;39868;53.398;6.564;2023-06-22T07:30:29;22.70;80.60
53962;DHT22;39868;53.398;6.564;2023-06-22T07:32:57;22.80;80.60
53962;DHT22;39868;53.398;6.564;2023-06-22T07:35:25;22.80;80.50
53962;DHT22;39868;53.398;6.564;2023-06-22T07:37:52;22.90;80.50
53962;DHT22;39868;53.398;6.564;2023-06-22T07:40:19;22.90;80.40
53962;DHT22;39868;53.398;6.564;2023-06-22T07:42:47;22.90;80.30
53962;DHT22;39868;53.398;6.564;2023-06-22T07:45:18;23.00;80.40
53962;DHT22;39868;53.398;6.564;2023-06-22T07:47:46;23.00;80.30
53962;DHT22;39868;53.398;6.564;2023-06-22T07:50:13;23.00;80.20
53962;DHT22;39868;53.398;6.564;2023-06-22T07:52:40;23.10;80.20
53962;DHT22;39868;53.398;6.564;2023-06-22T07:55:08;23.10;80.20
53962;DHT22;39868;53.398;6.564;2023-06-22T07:57:35;23.20;80.30
53962;DHT22;39868;53.398;6.564;2023-06-22T08:00:04;23.20;80.30
53962;DHT22;39868;53.398;6.564;2023-06-22T08:02:39;23.30;80.30
53962;DHT22;39868;53.398;6.564;2023-06-22T08:05:07;23.40;80.20
53962;DHT22;39868;53.398;6.564;2023-06-22T08:07:48;23.40;80.20
53962;DHT22;39868;53.398;6.564;2023-06-22T08:10:15;23.50;80.10
53962;DHT22;39868;53.398;6.564;2023-06-22T08:12:43;23.50;80.10
53962;DHT22;39868;53.398;6.564;2023-06-22T08:15:10;23.60;80.00
53962;DHT22;39868;53.398;6.564;2023-06-22T08:17:38;23.60;80.00
53962;DHT22;39868;53.398;6.564;2023-06-22T08:20:09;23.70;79.90
53962;DHT22;39868;53.398;6.564;2023-06-22T08:22:42;23.80;79.90
53962;DHT22;39868;53.398;6.564;2023-06-22T08:25:10;23.80;79.70
53962;DHT22;39868;53.398;6.564;2023-06-22T08:27:38;23.90;79.60
53962;DHT22;39868;53.398;6.564;2023-06-22T08:30:06;23.90;79.40
53962;DHT22;39868;53.398;6.564;2023-06-22T08:32:33;24.00;79.30
53962;DHT22;39868;53.398;6.564;2023-06-22T08:35:01;24.00;79.20
53962;DHT22;39868;53.398;6.564;2023-06-22T08:37:28;24.10;79.10
53962;DHT22;39868;53.398;6.564;2023-06-22T08:39:59;24.10;78.90
53962;DHT22;39868;53.398;6.564;2023-06-22T08:42:26;24.20;78.80
53962;DHT22;39868;53.398;6.564;2023-06-22T08:44:54;24.20;78.70
53962;DHT22;39868;53.398;6.564;2023-06-22T08:47:21;24.20;78.50
53962;DHT22;39868;53.398;6.564;2023-06-22T08:49:50;24.20;78.50
53962;DHT22;39868;53.398;6.564;2023-06-22T08:52:17;24.30;78.40
53962;DHT22;39868;53.398;6.564;2023-06-22T08:54:45;24.30;78.40
53962;DHT22;39868;53.398;6.564;2023-06-22T08:57:13;24.40;78.30
53962;DHT22;39868;53.398;6.564;2023-06-22T08:59:40;24.40;78.20
53962;DHT22;39868;53.398;6.564;2023-06-22T09:02:07;24.50;78.10
53962;DHT22;39868;53.398;6.564;2023-06-22T09:04:34;24.50;77.90
53962;DHT22;39868;53.398;6.564;2023-06-22T09:07:02;24.50;77.70
53962;DHT22;39868;53.398;6.564;2023-06-22T09:09:30;24.50;77.60
53962;DHT22;39868;53.398;6.564;2023-06-22T09:11:57;24.60;77.50
53962;DHT22;39868;53.398;6.564;2023-06-22T09:14:26;24.60;77.10
53962;DHT22;39868;53.398;6.564;2023-06-22T09:16:54;24.60;76.80
53962;DHT22;39868;53.398;6.564;2023-06-22T09:19:21;24.60;76.60
53962;DHT22;39868;53.398;6.564;2023-06-22T09:21:48;24.60;76.50
53962;DHT22;39868;53.398;6.564;2023-06-22T09:24:15;24.70;76.60
53962;DHT22;39868;53.398;6.564;2023-06-22T09:26:42;24.70;76.50
53962;DHT22;39868;53.398;6.564;2023-06-22T09:29:10;24.70;76.10
53962;DHT22;39868;53.398;6.564;2023-06-22T09:31:37;24.70;76.00
53962;DHT22;39868;53.398;6.564;2023-06-22T09:34:04;24.80;76.00
53962;DHT22;39868;53.398;6.564;2023-06-22T09:36:31;24.80;75.90
53962;DHT22;39868;53.398;6.564;2023-06-22T09:38:59;24.80;75.70
53962;DHT22;39868;53.398;6.564;2023-06-22T09:41:32;24.80;75.70
53962;DHT22;39868;53.398;6.564;2023-06-22T09:44:00;24.90;75.70
53962;DHT22;39868;53.398;6.564;2023-06-22T09:46:27;24.90;75.60
53962;DHT22;39868;53.398;6.564;2023-06-22T09:48:55;24.90;75.50
53962;DHT22;39868;53.398;6.564;2023-06-22T09:51:22;25.00;75.50
53962;DHT22;39868;53.398;6.564;2023-06-22T09:53:51;25.00;75.40
53962;DHT22;39868;53.398;6.564;2023-06-22T09:56:18;25.10;75.50
53962;DHT22;39868;53.398;6.564;2023-06-22T09:58:46;25.10;75.40
53962;DHT22;39868;53.398;6.564;2023-06-22T10:01:13;25.10;75.40
53962;DHT22;39868;53.398;6.564;2023-06-22T10:03:43;25.20;75.20
53962;DHT22;39868;53.398;6.564;2023-06-22T10:06:11;25.20;74.90
53962;DHT22;39868;53.398;6.564;2023-06-22T10:08:38;25.30;74.60
53962;DHT22;39868;53.398;6.564;2023-06-22T10:11:06;25.30;74.60
53962;DHT22;39868;53.398;6.564;2023-06-22T10:13:33;25.30;74.50
53962;DHT22;39868;53.398;6.564;2023-06-22T10:16:00;25.30;74.50
53962;DHT22;39868;53.398;6.564;2023-06-22T10:18:27;25.40;74.50
53962;DHT22;39868;53.398;6.564;2023-06-22T10:20:55;25.40;74.30
53962;DHT22;39868;53.398;6.564;2023-06-22T10:23:22;25.40;74.10
53962;DHT22;39868;53.398;6.564;2023-06-22T10:25:49;25.40;73.90
53962;DHT22;39868;53.398;6.564;2023-06-22T10:28:17;25.40;73.70
53962;DHT22;39868;53.398;6.564;2023-06-22T10:30:44;25.50;73.60
53962;DHT22;39868;53.398;6.564;2023-06-22T10:33:11;25.50;73.50
53962;DHT22;39868;53.398;6.564;2023-06-22T10:35:39;25.50;73.40
53962;DHT22;39868;53.398;6.564;2023-06-22T10:38:06;25.50;73.30
53962;DHT22;39868;53.398;6.564;2023-06-22T10:40:33;25.50;73.10
53962;DHT22;39868;53.398;6.564;2023-06-22T10:43:01;25.50;73.00
53962;DHT22;39868;53.398;6.564;2023-06-22T10:45:28;25.50;72.90
53962;DHT22;39868;53.398;6.564;2023-06-22T10:47:56;25.60;72.90
53962;DHT22;39868;53.398;6.564;2023-06-22T10:50:24;25.60;72.40
53962;DHT22;39868;53.398;6.564;2023-06-22T10:52:52;25.60;72.10
53962;DHT22;39868;53.398;6.564;2023-06-22T10:55:19;25.60;72.00
53962;DHT22;39868;53.398;6.564;2023-06-22T10:57:47;25.60;71.80
53962;DHT22;39868;53.398;6.564;2023-06-22T11:00:15;25.60;71.30
53962;DHT22;39868;53.398;6.564;2023-06-22T11:02:43;25.60;71.20
53962;DHT22;39868;53.398;6.564;2023-06-22T11:05:11;25.60;71.20
53962;DHT22;39868;53.398;6.564;2023-06-22T11:07:42;25.60;71.30
53962;DHT22;39868;53.398;6.564;2023-06-22T11:10:10;25.60;71.00
53962;DHT22;39868;53.398;6.564;2023-06-22T11:12:38;25.60;70.50
53962;DHT22;39868;53.398;6.564;2023-06-22T11:15:05;25.60;70.40
53962;DHT22;39868;53.398;6.564;2023-06-22T11:17:33;25.60;70.20
53962;DHT22;39868;53.398;6.564;2023-06-22T11:20:01;25.60;69.80
53962;DHT22;39868;53.398;6.564;2023-06-22T11:22:28;25.60;69.80
53962;DHT22;39868;53.398;6.564;2023-06-22T11:24:56;25.60;69.40
53962;DHT22;39868;53.398;6.564;2023-06-22T11:27:24;25.60;69.50
53962;DHT22;39868;53.398;6.564;2023-06-22T11:29:51;25.60;69.40
53962;DHT22;39868;53.398;6.564;2023-06-22T11:32:20;25.60;69.40
53962;DHT22;39868;53.398;6.564;2023-06-22T11:34:47;25.60;69.40
53962;DHT22;39868;53.398;6.564;2023-06-22T11:37:14;25.60;69.20
53962;DHT22;39868;53.398;6.564;2023-06-22T11:39:42;25.60;69.10
53962;DHT22;39868;53.398;6.564;2023-06-22T11:42:13;25.60;68.90
53962;DHT22;39868;53.398;6.564;2023-06-22T11:44:41;25.50;68.70
53962;DHT22;39868;53.398;6.564;2023-06-22T11:47:08;25.60;68.80
53962;DHT22;39868;53.398;6.564;2023-06-22T11:49:35;25.60;68.70
53962;DHT22;39868;53.398;6.564;2023-06-22T11:52:03;25.60;68.50
53962;DHT22;39868;53.398;6.564;2023-06-22T11:54:30;25.60;68.10
53962;DHT22;39868;53.398;6.564;2023-06-22T11:56:57;25.60;67.80
53962;DHT22;39868;53.398;6.564;2023-06-22T11:59:24;25.50;67.10
53962;DHT22;39868;53.398;6.564;2023-06-22T12:01:52;25.50;67.40
53962;DHT22;39868;53.398;6.564;2023-06-22T12:04:19;25.50;67.30
53962;DHT22;39868;53.398;6.564;2023-06-22T12:06:47;25.50;67.10
53962;DHT22;39868;53.398;6.564;2023-06-22T12:09:16;25.50;67.00
53962;DHT22;39868;53.398;6.564;2023-06-22T12:11:43;25.50;67.30
53962;DHT22;39868;53.398;6.564;2023-06-22T12:14:11;25.50;67.20
53962;DHT22;39868;53.398;6.564;2023-06-22T12:16:38;25.50;67.30
53962;DHT22;39868;53.398;6.564;2023-06-22T12:19:05;25.60;67.10
53962;DHT22;39868;53.398;6.564;2023-06-22T12:21:33;25.60;66.40
53962;DHT22;39868;53.398;6.564;2023-06-22T12:24:00;25.60;66.20
53962;DHT22;39868;53.398;6.564;2023-06-22T12:26:27;25.60;65.70
53962;DHT22;39868;53.398;6.564;2023-06-22T12:28:54;25.60;65.90
53962;DHT22;39868;53.398;6.564;2023-06-22T12:31:22;25.50;65.50
53962;DHT22;39868;53.398;6.564;2023-06-22T12:33:49;25.50;65.40
53962;DHT22;39868;53.398;6.564;2023-06-22T12:36:17;25.50;64.40
53962;DHT22;39868;53.398;6.564;2023-06-22T12:38:44;25.40;64.00
53962;DHT22;39868;53.398;6.564;2023-06-22T12:41:11;25.30;64.60
53962;DHT22;39868;53.398;6.564;2023-06-22T12:43:40;25.30;64.40
53962;DHT22;39868;53.398;6.564;2023-06-22T12:46:07;25.30;64.10
53962;DHT22;39868;53.398;6.564;2023-06-22T12:48:34;25.20;64.20
53962;DHT22;39868;53.398;6.564;2023-06-22T12:51:08;25.10;64.00
53962;DHT22;39868;53.398;6.564;2023-06-22T12:53:36;25.10;64.00
53962;DHT22;39868;53.398;6.564;2023-06-22T12:56:03;25.00;64.20
53962;DHT22;39868;53.398;6.564;2023-06-22T12:58:31;25.00;64.40
53962;DHT22;39868;53.398;6.564;2023-06-22T13:00:58;25.00;64.20
53962;DHT22;39868;53.398;6.564;2023-06-22T13:03:25;25.00;64.70
53962;DHT22;39868;53.398;6.564;2023-06-22T13:05:54;24.90;64.70
53962;DHT22;39868;53.398;6.564;2023-06-22T13:08:22;24.90;64.70
53962;DHT22;39868;53.398;6.564;2023-06-22T13:11:09;24.90;64.60
53962;DHT22;39868;53.398;6.564;2023-06-22T13:13:36;24.90;64.70
53962;DHT22;39868;53.398;6.564;2023-06-22T13:16:04;24.80;64.70
53962;DHT22;39868;53.398;6.564;2023-06-22T13:18:31;24.80;64.80
53962;DHT22;39868;53.398;6.564;2023-06-22T13:20:58;24.80;64.70
53962;DHT22;39868;53.398;6.564;2023-06-22T13:23:26;24.80;64.80
53962;DHT22;39868;53.398;6.564;2023-06-22T13:25:54;24.80;64.80
53962;DHT22;39868;53.398;6.564;2023-06-22T13:28:21;24.70;64.90
53962;DHT22;39868;53.398;6.564;2023-06-22T13:30:54;24.70;64.90
53962;DHT22;39868;53.398;6.564;2023-06-22T13:33:21;24.70;65.00
53962;DHT22;39868;53.398;6.564;2023-06-22T13:35:48;24.70;64.90
53962;DHT22;39868;53.398;6.564;2023-06-22T13:38:16;24.70;64.40
53962;DHT22;39868;53.398;6.564;2023-06-22T13:40:44;24.70;63.80
53962;DHT22;39868;53.398;6.564;2023-06-22T13:43:11;24.70;63.80
53962;DHT22;39868;53.398;6.564;2023-06-22T13:45:39;24.70;63.50
53962;DHT22;39868;53.398;6.564;2023-06-22T13:48:06;24.70;63.80
53962;DHT22;39868;53.398;6.564;2023-06-22T13:50:33;24.60;64.00
53962;DHT22;39868;53.398;6.564;2023-06-22T13:53:01;24.60;63.80
53962;DHT22;39868;53.398;6.564;2023-06-22T13:55:28;24.60;64.00
53962;DHT22;39868;53.398;6.564;2023-06-22T13:57:55;24.50;64.00
53962;DHT22;39868;53.398;6.564;2023-06-22T14:00:23;24.50;64.00
53962;DHT22;39868;53.398;6.564;2023-06-22T14:02:50;24.50;64.00
53962;DHT22;39868;53.398;6.564;2023-06-22T14:05:18;24.40;63.90
53962;DHT22;39868;53.398;6.564;2023-06-22T14:07:45;24.40;63.70
53962;DHT22;39868;53.398;6.564;2023-06-22T14:10:13;24.40;63.10
53962;DHT22;39868;53.398;6.564;2023-06-22T14:12:40;24.40;63.40
53962;DHT22;39868;53.398;6.564;2023-06-22T14:15:07;24.30;63.40
53962;DHT22;39868;53.398;6.564;2023-06-22T14:17:35;24.30;63.50
53962;DHT22;39868;53.398;6.564;2023-06-22T14:20:02;24.20;63.50
53962;DHT22;39868;53.398;6.564;2023-06-22T14:22:30;24.20;63.60
53962;DHT22;39868;53.398;6.564;2023-06-22T14:24:58;24.20;63.70
53962;DHT22;39868;53.398;6.564;2023-06-22T14:27:26;24.20;63.70
53962;DHT22;39868;53.398;6.564;2023-06-22T14:29:54;24.20;63.80
53962;DHT22;39868;53.398;6.564;2023-06-22T14:32:21;24.10;63.70
53962;DHT22;39868;53.398;6.564;2023-06-22T14:34:48;24.10;63.90
53962;DHT22;39868;53.398;6.564;2023-06-22T14:37:17;24.10;64.00
53962;DHT22;39868;53.398;6.564;2023-06-22T14:39:44;24.00;64.00
53962;DHT22;39868;53.398;6.564;2023-06-22T14:42:11;24.00;64.00
53962;DHT22;39868;53.398;6.564;2023-06-22T14:44:39;24.00;64.00
53962;DHT22;39868;53.398;6.564;2023-06-22T14:47:06;24.00;64.00
53962;DHT22;39868;53.398;6.564;2023-06-22T14:49:33;24.00;63.90
53962;DHT22;39868;53.398;6.564;2023-06-22T14:52:03;24.00;63.80
53962;DHT22;39868;53.398;6.564;2023-06-22T14:54:30;24.00;63.90
53962;DHT22;39868;53.398;6.564;2023-06-22T14:56:57;24.00;63.90
53962;DHT22;39868;53.398;6.564;2023-06-22T14:59:24;24.00;63.50
53962;DHT22;39868;53.398;6.564;2023-06-22T15:01:52;24.00;63.70
53962;DHT22;39868;53.398;6.564;2023-06-22T15:04:19;24.00;63.80
53962;DHT22;39868;53.398;6.564;2023-06-22T15:06:46;23.90;63.60
53962;DHT22;39868;53.398;6.564;2023-06-22T15:09:13;23.90;63.60
53962;DHT22;39868;53.398;6.564;2023-06-22T15:11:41;23.90;63.10
53962;DHT22;39868;53.398;6.564;2023-06-22T15:14:08;23.90;63.30
53962;DHT22;39868;53.398;6.564;2023-06-22T15:16:37;23.90;63.30
53962;DHT22;39868;53.398;6.564;2023-06-22T15:19:05;23.90;62.90
53962;DHT22;39868;53.398;6.564;2023-06-22T15:21:32;23.90;63.00
53962;DHT22;39868;53.398;6.564;2023-06-22T15:24:00;23.90;63.00
53962;DHT22;39868;53.398;6.564;2023-06-22T15:26:27;23.90;63.30
53962;DHT22;39868;53.398;6.564;2023-06-22T15:28:54;23.90;63.20
53962;DHT22;39868;53.398;6.564;2023-06-22T15:31:22;23.80;63.40
53962;DHT22;39868;53.398;6.564;2023-06-22T15:33:49;23.90;63.60
53962;DHT22;39868;53.398;6.564;2023-06-22T15:36:16;23.90;63.30
53962;DHT22;39868;53.398;6.564;2023-06-22T15:38:43;23.80;63.20
53962;DHT22;39868;53.398;6.564;2023-06-22T15:41:11;23.80;63.30